Date,TemperatureHighF,TemperatureAvgF,TemperatureLowF,DewpointHighF,DewpointAvgF,DewpointLowF,HumidityHigh,HumidityAvg,HumidityLow,PressureMaxIn,PressureMinIn,WindSpeedMaxMPH,WindSpeedAvgMPH,GustSpeedMaxMPH,PrecipitationSumIn
2013-11-1,60.9,55.9,51.9,52.2,49.7,46.9,86,80,65,30.31,29.89,1,0,5,0.00
2013-11-2,54.5,52.2,48.3,50.1,45.5,40.1,86,78,66,29.89,29.54,8,2,30,0.01
2013-11-3,52.3,46.4,42.5,41.7,39.6,37.9,86,78,58,30.15,30.08,3,0,7,0.00
2013-11-4,49.1,43.7,37.0,41.2,37.6,31.8,86,79,65,30.25,30.10,1,0,3,0.00
2013-11-5,55.0,49.3,44.9,49.3,44.1,40.1,86,82,71,30.30,30.06,2,0,10,0.00
2013-11-6,51.7,48.5,44.7,46.7,43.9,39.4,86,84,77,30.36,30.07,1,0,3,0.00
2013-11-7,51.4,49.5,48.0,48.6,46.0,44.0,95,88,81,30.07,29.75,11,3,24,0.01
2013-11-8,53.7,49.7,44.2,46.4,44.4,40.3,86,82,71,30.20,30.02,2,0,9,0.00
2013-11-9,50.4,46.1,41.1,45.2,41.3,35.1,86,83,73,30.20,30.11,2,0,6,0.02
2013-11-10,49.9,48.3,47.0,45.9,44.2,42.6,86,86,84,30.20,30.13,4,2,8,0.00
2013-11-11,56.5,49.5,44.1,48.9,44.2,37.9,86,82,67,30.21,30.04,2,0,6,0.00
2013-11-12,61.3,53.1,48.5,53.7,48.1,44.2,86,83,76,30.42,30.07,1,0,7,0.00
2013-11-13,57.7,53.1,49.0,49.6,47.8,44.7,86,82,72,30.48,30.35,3,0,11,0.00
2013-11-14,50.9,47.3,42.9,46.5,42.7,36.3,86,84,76,30.35,30.10,1,0,7,0.00
2013-11-15,49.3,45.7,43.9,45.3,41.5,36.7,87,85,76,30.11,29.37,2,1,14,0.00
2013-11-16,48.5,44.9,39.8,43.2,39.1,36.0,87,80,67,29.82,29.41,5,1,14,0.00
2013-11-17,52.7,47.6,43.6,47.4,43.3,39.4,86,85,82,29.96,29.82,2,0,11,0.00
2013-11-18,52.8,50.6,48.0,48.9,45.1,42.0,96,81,74,29.96,29.60,5,0,8,0.00
2013-11-19,54.2,45.9,40.9,50.1,39.2,26.8,87,78,55,30.13,29.60,13,2,17,0.02
2013-11-20,43.1,39.3,35.3,34.0,29.9,27.3,83,69,55,30.57,30.13,16,3,21,0.01
2013-11-21,43.6,36.6,30.7,32.0,29.5,26.9,87,76,54,30.72,30.57,10,1,13,0.00
2013-11-22,46.1,38.9,33.6,35.3,31.5,28.1,85,75,52,30.70,30.51,9,2,14,0.00
2013-11-23,50.1,39.5,32.0,39.1,33.6,27.9,87,80,64,30.50,30.25,2,0,5,0.00
2013-11-24,50.9,39.5,32.8,41.4,36.0,28.2,96,87,67,30.31,30.22,2,0,5,0.00
2013-11-25,50.1,41.0,34.3,42.4,37.2,30.9,97,86,67,30.38,30.30,4,0,7,0.00
2013-11-26,51.2,41.7,33.8,42.7,36.1,28.3,87,80,71,30.32,30.14,0,0,2,0.00
2013-11-27,54.3,46.4,39.8,44.1,41.0,35.3,87,81,65,30.14,30.00,1,0,3,0.00
2013-11-28,45.9,40.7,36.8,40.5,34.5,30.4,84,78,72,30.24,30.07,1,0,3,0.00
2013-11-29,48.5,45.3,39.7,46.3,41.0,34.8,96,85,80,30.36,30.23,4,0,8,0.00
2013-11-30,51.6,48.5,44.6,47.4,44.5,40.9,94,86,81,30.39,30.14,6,2,10,0.00